Sawyer International Airport
KSAW : now visible

Airfield :











YOU CAN JOIN US ON...

 
LOGIN :

Register | Disclaimer

   EN    FR    IT 

 









Legend :    VFR   Marginal VFR   IFR   Intensive IFR   Very Intensive IFR
Visi :
Ceiling :
>= 8 km
>= 3000ft
5 to 8 km
1000 to 3000 ft
1500m to 5 km
500 to 1000 ft
800 to 1500m
200 to 500 ft
< 800m
< 200 ft
Symbols :   Thunderstorms  Fog  Heavy snow  Heavy precipitations  Wind > 20 kt






- Airport Elevation : 1221 ft


KSAW - Sawyer International

CURRENT METAR :
  • 250438Z AUTO 19009KT 10SM CLR 16/12 A2976 RMK AO2 LTG DSNT SW AND W

EXPIRED METARs :
  • 250418Z AUTO 17011KT 10SM CLR 17/12 A2975 RMK AO2 LTG DSNT SW
  • 250358Z AUTO 18012KT 10SM CLR 17/12 A2976 RMK AO2 LTG DSNT W
  • 250338Z AUTO 18010KT 10SM CLR 17/12 A2977 RMK AO2 LTG DSNT W
  • 250318Z AUTO 17011KT 10SM CLR 17/12 A2977 RMK AO2 LTG DSNT W
  • 250258Z AUTO 17007KT 10SM CLR 17/12 A2978 RMK AO2
  • 250238Z AUTO 16009KT 10SM CLR 18/13 A2977 RMK AO2
  • 250218Z AUTO 17009KT 1 3/4SM HZ CLR 18/13 A2977 RMK AO2 VIS 1/2V5
  • 250147Z 18012KT 10SM CLR 19/13 A2977
  • 242347Z 17015G20KT 10SM CLR 21/14 A2978

TAF KSAW
Valid from the 25 at 00:00 until the 26 at 00:00 UTC


242320Z 2500/2524 18010G18KT P6SM BKN130
FM250700 20010G21KT P6SM -SHRA VCTS BKN070CB WS020/22040KT
FM250900 21007KT P6SM -SHRA OVC020 WS020/23050KT
FM251000 21007KT P6SM VCSH BKN020 WS020/24035KT
FM251300 24007KT P6SM SCT023
FM251700 28012KT P6SM FEW110
KZMP FIR / North America



MET'MAP, your aeronautical weather chart ! - Copyright ORBIFLY December 2007 - Disclaimer

ORBIFLY MET'MAP TEAM :

Programming & Development : Alexandra Zaïnal
Original concept : Baudouin d'Aumeries
Technical & hardware support : Manuel Goepfert
Assistance : Marc-Olivier Méhu




SOURCES & CREDITS :

   NOAA       Earth
Advisory